Station Historical Data
Daily Summary for March 23, 2012 Units:  English    Metric   Both
« Previous Day
Next Day »
Daily Weekly Monthly Yearly Custom
  High: Low: Average:
Temperature: 77.7 °F 59.2 °F 67.2 °F
Dew Point: 65.1 °F 46.4 °F 56.8 °F
Humidity: 95% 40% 73%
Wind Speed: 17.0mph 0.0mph 6.5mph
Wind Gust: 19.0mph - -
Wind- - South
Pressure: 30.00 in 29.80 in -
Precipitation: 0.03 in    
Historical Graphs
 
 
Tabular Data for March 23, 2012
Time Temperature Dew Point Pressure Wind Wind Speed Wind Gust Humidity Rainfall Rate (Hourly) Conditions
00:00 62.1 °F 59.8 °F 30.00 in SE 4.0 mph 6.0 mph 92% 0.00 in
00:05 62.1 °F 59.8 °F 30.00 in SE 7.0 mph 8.0 mph 92% 0.00 in
00:10 62.2 °F 59.8 °F 30.00 in SE 11.0 mph 11.0 mph 92% 0.00 in
00:15 62.4 °F 60.0 °F 30.00 in SE 5.0 mph 11.0 mph 92% 0.00 in
00:20 62.4 °F 60.0 °F 30.00 in ESE 5.0 mph 10.0 mph 92% 0.00 in
00:25 62.4 °F 60.0 °F 30.00 in ESE 8.0 mph 11.0 mph 92% 0.00 in
00:30 62.4 °F 60.0 °F 30.00 in ESE 11.0 mph 11.0 mph 92% 0.00 in
00:36 62.5 °F 59.8 °F 30.00 in SSE 11.0 mph 11.0 mph 91% 0.00 in
00:41 62.5 °F 59.8 °F 30.00 in SE 8.0 mph 12.0 mph 91% 0.00 in
00:46 62.5 °F 59.8 °F 29.99 in SE 8.0 mph 13.0 mph 91% 0.00 in
00:51 62.4 °F 59.7 °F 30.00 in SSE 6.0 mph 12.0 mph 91% 0.00 in
00:56 62.4 °F 60.0 °F 30.00 in SE 8.0 mph 10.0 mph 92% 0.00 in
01:01 62.4 °F 60.0 °F 30.00 in SE 9.0 mph 10.0 mph 92% 0.00 in
01:06 62.4 °F 60.0 °F 30.00 in SE 6.0 mph 10.0 mph 92% 0.00 in
01:11 62.4 °F 60.0 °F 30.00 in SE 10.0 mph 11.0 mph 92% 0.00 in
01:16 62.4 °F 60.0 °F 30.00 in ESE 8.0 mph 12.0 mph 92% 0.00 in
01:21 62.4 °F 60.0 °F 30.00 in SE 6.0 mph 12.0 mph 92% 0.00 in
01:26 62.4 °F 60.0 °F 30.00 in ESE 5.0 mph 7.0 mph 92% 0.00 in
01:31 62.3 °F 60.0 °F 29.99 in East 6.0 mph 7.0 mph 92% 0.00 in
01:36 62.3 °F 60.0 °F 29.99 in SSE 7.0 mph 8.0 mph 92% 0.00 in
01:41 62.3 °F 60.0 °F 29.99 in ESE 5.0 mph 8.0 mph 92% 0.00 in
01:46 62.3 °F 60.0 °F 29.99 in SSE 6.0 mph 9.0 mph 92% 0.00 in
01:51 62.3 °F 60.0 °F 29.99 in SE 7.0 mph 8.0 mph 92% 0.00 in
01:56 62.4 °F 60.0 °F 29.99 in SE 7.0 mph 11.0 mph 92% 0.00 in
02:01 62.4 °F 60.0 °F 29.99 in SE 6.0 mph 10.0 mph 92% 0.00 in
02:06 62.4 °F 60.0 °F 29.99 in SE 5.0 mph 8.0 mph 92% 0.00 in
02:11 62.4 °F 60.0 °F 29.99 in SE 6.0 mph 7.0 mph 92% 0.00 in
02:16 62.4 °F 60.0 °F 29.99 in SE 4.0 mph 8.0 mph 92% 0.00 in
02:21 62.4 °F 60.0 °F 29.99 in ESE 6.0 mph 8.0 mph 92% 0.00 in
02:26 62.4 °F 60.0 °F 29.99 in SE 7.0 mph 8.0 mph 92% 0.00 in
02:31 62.3 °F 60.0 °F 29.98 in SSE 5.0 mph 8.0 mph 92% 0.00 in
02:37 62.3 °F 60.0 °F 29.98 in ESE 6.0 mph 8.0 mph 92% 0.00 in
02:42 62.3 °F 60.0 °F 29.98 in SE 8.0 mph 8.0 mph 92% 0.00 in
02:47 62.2 °F 59.8 °F 29.98 in SE 5.0 mph 7.0 mph 92% 0.00 in
02:52 62.0 °F 59.7 °F 29.99 in SE 3.0 mph 9.0 mph 92% 0.00 in
02:57 61.8 °F 59.5 °F 29.99 in ESE 3.0 mph 6.0 mph 92% 0.00 in
03:02 61.7 °F 59.7 °F 29.99 in SE 3.0 mph 5.0 mph 93% 0.00 in
03:07 61.6 °F 59.6 °F 29.99 in SE 3.0 mph 5.0 mph 93% 0.00 in
03:12 61.6 °F 59.6 °F 29.99 in ESE 4.0 mph 6.0 mph 93% 0.00 in
03:17 61.4 °F 59.4 °F 29.99 in SE 5.0 mph 5.0 mph 93% 0.00 in
03:22 61.2 °F 59.2 °F 29.98 in ESE 5.0 mph 5.0 mph 93% 0.00 in
03:27 61.0 °F 59.0 °F 29.98 in ESE 2.0 mph 4.0 mph 93% 0.00 in
03:32 60.9 °F 58.9 °F 29.98 in SE 3.0 mph 5.0 mph 93% 0.00 in
03:37 60.8 °F 58.8 °F 29.98 in ESE 1.0 mph 3.0 mph 93% 0.00 in
03:42 60.8 °F 59.1 °F 29.98 in ESE 4.0 mph 4.0 mph 94% 0.00 in
03:47 60.8 °F 59.1 °F 29.97 in ESE 1.0 mph 3.0 mph 94% 0.00 in
03:52 60.7 °F 59.0 °F 29.97 in ESE 2.0 mph 2.0 mph 94% 0.00 in
03:57 60.6 °F 58.9 °F 29.97 in SE 1.0 mph 2.0 mph 94% 0.00 in
04:02 60.7 °F 59.0 °F 29.96 in ESE 2.0 mph 2.0 mph 94% 0.00 in
04:07 60.8 °F 59.1 °F 29.96 in ESE 2.0 mph 3.0 mph 94% 0.00 in
04:12 60.9 °F 59.2 °F 29.97 in ESE 1.0 mph 3.0 mph 94% 0.00 in
04:17 60.9 °F 59.2 °F 29.97 in SE 1.0 mph 2.0 mph 94% 0.00 in
04:22 61.0 °F 59.3 °F 29.96 in East 1.0 mph 3.0 mph 94% 0.00 in
04:27 61.0 °F 59.3 °F 29.97 in SSE 1.0 mph 1.0 mph 94% 0.00 in
04:32 61.0 °F 59.3 °F 29.96 in Calm   2.0 mph 94% 0.00 in
04:37 60.9 °F 59.2 °F 29.96 in Calm   1.0 mph 94% 0.00 in
04:43 60.7 °F 59.0 °F 29.96 in Calm   1.0 mph 94% 0.00 in
04:48 60.6 °F 58.9 °F 29.96 in Calm     94% 0.00 in
04:53 60.6 °F 58.9 °F 29.95 in Calm   1.0 mph 94% 0.00 in
04:58 60.6 °F 58.9 °F 29.96 in SE 1.0 mph 1.0 mph 94% 0.00 in
05:03 60.6 °F 58.9 °F 29.96 in ESE 1.0 mph 1.0 mph 94% 0.00 in
05:08 60.6 °F 58.9 °F 29.96 in ESE 1.0 mph 3.0 mph 94% 0.00 in
05:13 60.6 °F 58.9 °F 29.95 in ESE 3.0 mph 3.0 mph 94% 0.00 in
05:18 60.6 °F 58.9 °F 29.95 in ESE 2.0 mph 4.0 mph 94% 0.00 in
05:23 60.5 °F 58.8 °F 29.95 in ESE 4.0 mph 5.0 mph 94% 0.00 in
05:28 60.4 °F 58.7 °F 29.95 in ESE 3.0 mph 4.0 mph 94% 0.00 in
05:33 60.4 °F 58.7 °F 29.95 in ESE 4.0 mph 5.0 mph 94% 0.00 in
05:38 60.4 °F 58.7 °F 29.96 in SE 4.0 mph 6.0 mph 94% 0.00 in
05:43 60.6 °F 58.9 °F 29.96 in SE 3.0 mph 4.0 mph 94% 0.00 in
05:48 60.7 °F 59.0 °F 29.96 in SE 2.0 mph 5.0 mph 94% 0.00 in
05:53 60.9 °F 59.2 °F 29.95 in SE 6.0 mph 6.0 mph 94% 0.00 in
05:58 60.9 °F 59.2 °F 29.95 in SE 4.0 mph 6.0 mph 94% 0.00 in
06:03 61.0 °F 59.3 °F 29.95 in SE 4.0 mph 6.0 mph 94% 0.00 in
06:08 61.0 °F 59.3 °F 29.95 in ESE 6.0 mph 6.0 mph 94% 0.00 in
06:13 60.9 °F 59.2 °F 29.95 in ESE 3.0 mph 5.0 mph 94% 0.00 in
06:18 60.9 °F 59.2 °F 29.95 in ESE 4.0 mph 5.0 mph 94% 0.00 in
06:23 61.0 °F 59.6 °F 29.95 in ESE 4.0 mph 8.0 mph 95% 0.00 in
06:28 61.1 °F 59.7 °F 29.95 in SE 3.0 mph 6.0 mph 95% 0.00 in
06:33 61.2 °F 59.8 °F 29.95 in ESE 4.0 mph 6.0 mph 95% 0.00 in
06:39 61.3 °F 59.9 °F 29.95 in SE 5.0 mph 5.0 mph 95% 0.00 in
06:44 61.4 °F 60.0 °F 29.94 in SE 3.0 mph 4.0 mph 95% 0.00 in
06:49 61.4 °F 60.0 °F 29.94 in SE 2.0 mph 4.0 mph 95% 0.00 in
06:54 61.4 °F 60.0 °F 29.95 in SE 5.0 mph 6.0 mph 95% 0.00 in
06:59 61.4 °F 59.7 °F 29.95 in SSE 4.0 mph 4.0 mph 94% 0.00 in
07:04 61.4 °F 59.7 °F 29.95 in South 2.0 mph 3.0 mph 94% 0.00 in
07:09 61.4 °F 59.7 °F 29.95 in South 1.0 mph 2.0 mph 94% 0.00 in
07:14 61.3 °F 59.9 °F 29.95 in SE 2.0 mph 3.0 mph 95% 0.00 in
07:19 61.4 °F 60.0 °F 29.95 in SSE 3.0 mph 7.0 mph 95% 0.14 in
07:24 61.6 °F 60.2 °F 29.95 in SE 2.0 mph 4.0 mph 95% 0.06 in
07:29 61.7 °F 60.3 °F 29.95 in SE 2.0 mph 4.0 mph 95% 0.04 in
07:34 61.7 °F 60.3 °F 29.95 in SE 4.0 mph 5.0 mph 95% 0.00 in
07:39 61.8 °F 60.4 °F 29.95 in SSE 1.0 mph 4.0 mph 95% 0.00 in
07:44 61.8 °F 60.4 °F 29.95 in South 4.0 mph 7.0 mph 95% 0.00 in
07:49 61.9 °F 60.5 °F 29.95 in SE 6.0 mph 7.0 mph 95% 0.00 in
07:54 62.0 °F 60.6 °F 29.95 in SSE 3.0 mph 7.0 mph 95% 0.00 in
07:59 62.0 °F 60.6 °F 29.95 in SE 8.0 mph 9.0 mph 95% 0.00 in
08:04 62.1 °F 60.7 °F 29.95 in SE 10.0 mph 10.0 mph 95% 0.00 in
08:09 62.2 °F 60.8 °F 29.95 in SE 4.0 mph 8.0 mph 95% 0.00 in
08:14 62.2 °F 60.8 °F 29.95 in SE 4.0 mph 9.0 mph 95% 0.00 in
08:19 62.2 °F 60.8 °F 29.95 in SSE 5.0 mph 7.0 mph 95% 0.00 in
08:24 62.2 °F 60.8 °F 29.95 in SSE 5.0 mph 7.0 mph 95% 0.00 in
08:29 62.2 °F 60.5 °F 29.95 in ESE 5.0 mph 6.0 mph 94% 0.00 in
08:34 62.2 °F 60.5 °F 29.95 in SE 5.0 mph 5.0 mph 94% 0.00 in
08:39 62.2 °F 60.5 °F 29.95 in SSE 3.0 mph 6.0 mph 94% 0.00 in
08:44 62.2 °F 60.5 °F 29.95 in SE 8.0 mph 8.0 mph 94% 0.00 in
08:49 62.3 °F 60.6 °F 29.95 in ESE 7.0 mph 8.0 mph 94% 0.00 in
08:54 62.3 °F 60.6 °F 29.95 in SE 7.0 mph 9.0 mph 94% 0.00 in
08:59 62.5 °F 60.8 °F 29.95 in SE 10.0 mph 12.0 mph 94% 0.00 in
09:04 62.6 °F 60.8 °F 29.95 in ESE 8.0 mph 11.0 mph 94% 0.00 in
09:09 62.7 °F 61.0 °F 29.95 in SE 9.0 mph 10.0 mph 94% 0.00 in
09:15 62.8 °F 61.0 °F 29.95 in SE 4.0 mph 9.0 mph 94% 0.00 in
09:20 62.9 °F 61.2 °F 29.95 in SSE 6.0 mph 11.0 mph 94% 0.00 in
09:25 63.2 °F 61.5 °F 29.95 in SE 7.0 mph 11.0 mph 94% 0.00 in
09:30 63.4 °F 61.7 °F 29.95 in SE 6.0 mph 10.0 mph 94% 0.00 in
09:35 63.6 °F 61.8 °F 29.95 in SE 8.0 mph 12.0 mph 94% 0.00 in
09:40 64.1 °F 62.3 °F 29.96 in SSE 5.0 mph 14.0 mph 94% 0.00 in
09:45 64.7 °F 62.6 °F 29.96 in South 10.0 mph 13.0 mph 93% 0.00 in
09:50 64.9 °F 62.8 °F 29.95 in SE 6.0 mph 10.0 mph 93% 0.00 in
09:55 65.1 °F 62.7 °F 29.96 in SSE 14.0 mph 14.0 mph 92% 0.00 in
10:00 65.3 °F 62.9 °F 29.96 in SSE 7.0 mph 13.0 mph 92% 0.00 in
10:05 65.3 °F 62.6 °F 29.95 in SSE 8.0 mph 12.0 mph 91% 0.00 in
10:07 65.4 °F 63.0 °F 29.95 in SSE 6.0 mph 12.0 mph 92% 0.00 in
10:12 65.9 °F 63.5 °F 29.95 in South 9.0 mph 9.0 mph 92% 0.00 in
10:17 66.0 °F 63.3 °F 29.95 in SE 9.0 mph 11.0 mph 91% 0.00 in
10:22 66.2 °F 63.5 °F 29.95 in SSE 7.0 mph 11.0 mph 91% 0.00 in
10:27 66.6 °F 63.6 °F 29.95 in SSW 10.0 mph 12.0 mph 90% 0.00 in
10:32 66.5 °F 63.2 °F 29.96 in South 7.0 mph 13.0 mph 89% 0.00 in
10:38 66.2 °F 63.2 °F 29.96 in SE 6.0 mph 10.0 mph 90% 0.00 in
10:43 65.8 °F 62.8 °F 29.96 in SSE 9.0 mph 14.0 mph 90% 0.00 in
10:48 65.7 °F 62.7 °F 29.96 in SSE 9.0 mph 12.0 mph 90% 0.00 in
10:53 66.0 °F 63.3 °F 29.95 in SSE 4.0 mph 8.0 mph 91% 0.00 in
10:58 66.2 °F 63.2 °F 29.96 in SSE 11.0 mph 11.0 mph 90% 0.00 in
11:03 66.7 °F 63.7 °F 29.96 in SSE 8.0 mph 12.0 mph 90% 0.00 in
11:08 67.1 °F 64.1 °F 29.96 in South 5.0 mph 9.0 mph 90% 0.00 in
11:13 67.7 °F 64.3 °F 29.96 in SSW 6.0 mph 11.0 mph 89% 0.00 in
11:18 68.0 °F 64.3 °F 29.96 in South 9.0 mph 12.0 mph 88% 0.00 in
11:23 68.1 °F 64.4 °F 29.95 in SE 6.0 mph 11.0 mph 88% 0.00 in
11:28 68.6 °F 64.2 °F 29.95 in SSE 9.0 mph 14.0 mph 86% 0.00 in
11:33 68.6 °F 64.2 °F 29.95 in SSE 4.0 mph 16.0 mph 86% 0.00 in
11:38 68.8 °F 64.1 °F 29.95 in SSW 6.0 mph 10.0 mph 85% 0.00 in
11:43 69.5 °F 65.1 °F 29.95 in SSE 3.0 mph 12.0 mph 86% 0.00 in
11:49 69.5 °F 63.8 °F 29.95 in South 7.0 mph 13.0 mph 82% 0.00 in
11:54 69.6 °F 64.2 °F 29.94 in SSE 8.0 mph 9.0 mph 83% 0.00 in
11:59 69.7 °F 64.3 °F 29.94 in South 8.0 mph 10.0 mph 83% 0.00 in
12:04 70.1 °F 63.7 °F 29.94 in South 9.0 mph 10.0 mph 80% 0.00 in
12:09 70.5 °F 65.1 °F 29.94 in SW 8.0 mph 8.0 mph 83% 0.00 in
12:14 71.0 °F 63.4 °F 29.93 in SW 7.0 mph 11.0 mph 77% 0.00 in
12:19 71.2 °F 63.6 °F 29.93 in SSW 7.0 mph 12.0 mph 77% 0.00 in
12:24 71.2 °F 63.3 °F 29.93 in South 11.0 mph 13.0 mph 76% 0.00 in
12:29 71.0 °F 61.9 °F 29.93 in South 7.0 mph 15.0 mph 73% 0.00 in
12:34 71.6 °F 62.1 °F 29.92 in South 6.0 mph 14.0 mph 72% 0.00 in
12:39 71.6 °F 62.5 °F 29.92 in South 6.0 mph 12.0 mph 73% 0.00 in
12:44 71.2 °F 62.5 °F 29.92 in SW 6.0 mph 9.0 mph 74% 0.00 in
12:49 71.9 °F 62.8 °F 29.92 in SSE 12.0 mph 18.0 mph 73% 0.00 in
12:54 72.3 °F 62.4 °F 29.92 in SW 10.0 mph 15.0 mph 71% 0.00 in
12:59 72.6 °F 63.1 °F 29.91 in SSE 4.0 mph 13.0 mph 72% 0.00 in
13:04 72.6 °F 61.0 °F 29.92 in SSE 8.0 mph 16.0 mph 67% 0.00 in
13:09 72.3 °F 62.0 °F 29.91 in South 5.0 mph 9.0 mph 70% 0.00 in
13:14 72.9 °F 63.8 °F 29.91 in South 7.0 mph 12.0 mph 73% 0.00 in
13:19 73.1 °F 62.3 °F 29.91 in SE 14.0 mph 14.0 mph 69% 0.00 in
13:24 73.4 °F 62.6 °F 29.90 in SE 6.0 mph 8.0 mph 69% 0.00 in
13:29 73.9 °F 60.5 °F 29.90 in SE 13.0 mph 15.0 mph 63% 0.00 in
13:34 74.0 °F 60.6 °F 29.91 in SW 7.0 mph 13.0 mph 63% 0.00 in
13:39 74.4 °F 60.5 °F 29.90 in SSW 7.0 mph 11.0 mph 62% 0.00 in
13:44 74.7 °F 58.5 °F 29.90 in SW 9.0 mph 15.0 mph 57% 0.00 in
13:49 74.4 °F 60.5 °F 29.90 in SSE 10.0 mph 11.0 mph 62% 0.00 in
13:54 75.1 °F 61.7 °F 29.90 in SE 12.0 mph 12.0 mph 63% 0.00 in
14:00 75.1 °F 58.3 °F 29.89 in SW 7.0 mph 12.0 mph 56% 0.00 in
14:05 75.4 °F 59.1 °F 29.90 in SSW 12.0 mph 16.0 mph 57% 0.00 in
14:10 75.1 °F 57.8 °F 29.89 in SE 11.0 mph 18.0 mph 55% 0.00 in
14:15 75.3 °F 58.5 °F 29.89 in SSW 10.0 mph 16.0 mph 56% 0.00 in
14:20 75.6 °F 57.3 °F 29.89 in SSE 9.0 mph 13.0 mph 53% 0.00 in
14:25 75.4 °F 58.1 °F 29.89 in South 13.0 mph 14.0 mph 55% 0.00 in
14:30 75.6 °F 56.8 °F 29.88 in SW 9.0 mph 13.0 mph 52% 0.00 in
14:35 76.0 °F 53.8 °F 29.88 in South 9.0 mph 15.0 mph 46% 0.00 in
14:40 76.7 °F 56.7 °F 29.88 in SW 7.0 mph 11.0 mph 50% 0.00 in
14:45 76.4 °F 54.1 °F 29.88 in South 14.0 mph 14.0 mph 46% 0.00 in
14:50 75.8 °F 53.0 °F 29.87 in South 9.0 mph 13.0 mph 45% 0.00 in
14:55 76.0 °F 53.2 °F 29.87 in SE 10.0 mph 19.0 mph 45% 0.00 in
14:57 76.1 °F 53.8 °F 29.87 in SE 14.0 mph 16.0 mph 46% 0.00 in
15:02 76.1 °F 52.0 °F 29.86 in SW 8.0 mph 15.0 mph 43% 0.00 in
15:07 75.3 °F 52.5 °F 29.86 in SW 8.0 mph 14.0 mph 45% 0.00 in
15:12 75.7 °F 54.1 °F 29.86 in South 4.0 mph 12.0 mph 47% 0.00 in
15:17 76.2 °F 53.3 °F 29.87 in SSE 10.0 mph 19.0 mph 45% 0.00 in
15:22 76.4 °F 52.3 °F 29.86 in SW 15.0 mph 15.0 mph 43% 0.00 in
15:27 76.5 °F 51.7 °F 29.86 in SSE 6.0 mph 14.0 mph 42% 0.00 in
15:32 76.6 °F 52.5 °F 29.85 in South 8.0 mph 19.0 mph 43% 0.00 in
15:37 76.7 °F 51.2 °F 29.85 in SSW 6.0 mph 13.0 mph 41% 0.00 in
15:42 76.8 °F 51.3 °F 29.85 in South 7.0 mph 16.0 mph 41% 0.00 in
15:48 77.1 °F 51.6 °F 29.84 in SSW 10.0 mph 15.0 mph 41% 0.00 in
15:53 77.5 °F 53.3 °F 29.84 in WSW 10.0 mph 14.0 mph 43% 0.00 in
15:58 77.6 °F 52.7 °F 29.84 in SW 14.0 mph 14.0 mph 42% 0.00 in
16:03 77.3 °F 51.1 °F 29.84 in SW 13.0 mph 14.0 mph 40% 0.00 in
16:08 77.4 °F 53.2 °F 29.84 in SW 7.0 mph 16.0 mph 43% 0.00 in
16:13 77.3 °F 52.5 °F 29.83 in South 10.0 mph 13.0 mph 42% 0.00 in
16:18 77.1 °F 52.3 °F 29.84 in WSW 13.0 mph 15.0 mph 42% 0.00 in
16:23 76.9 °F 51.4 °F 29.83 in WSW 8.0 mph 14.0 mph 41% 0.00 in
16:28 77.0 °F 52.2 °F 29.83 in South 8.0 mph 13.0 mph 42% 0.00 in
16:33 77.2 °F 54.2 °F 29.83 in SSE 12.0 mph 12.0 mph 45% 0.00 in
16:38 77.1 °F 52.9 °F 29.83 in SW 6.0 mph 15.0 mph 43% 0.00 in
16:43 77.6 °F 53.4 °F 29.82 in SW 7.0 mph 14.0 mph 43% 0.00 in
16:48 77.4 °F 52.5 °F 29.83 in SE 17.0 mph 17.0 mph 42% 0.00 in
16:53 77.4 °F 52.5 °F 29.82 in SSW 7.0 mph 11.0 mph 42% 0.00 in
16:58 77.5 °F 53.3 °F 29.82 in SSE 6.0 mph 15.0 mph 43% 0.00 in
17:03 77.7 °F 52.8 °F 29.81 in WSW 8.0 mph 14.0 mph 42% 0.00 in
17:08 77.5 °F 52.6 °F 29.81 in SW 8.0 mph 13.0 mph 42% 0.00 in
17:13 77.5 °F 54.5 °F 29.81 in South 9.0 mph 11.0 mph 45% 0.00 in
17:18 77.4 °F 53.2 °F 29.81 in South 8.0 mph 18.0 mph 43% 0.00 in
17:19 77.4 °F 53.2 °F 29.81 in South 9.0 mph 18.0 mph 43% 0.00 in
17:24 77.4 °F 53.2 °F 29.81 in SW 11.0 mph 17.0 mph 43% 0.00 in
17:29 77.2 °F 54.2 °F 29.81 in SW 11.0 mph 14.0 mph 45% 0.00 in
17:34 77.2 °F 53.6 °F 29.80 in SSW 12.0 mph 16.0 mph 44% 0.00 in
17:39 76.6 °F 52.5 °F 29.81 in South 5.0 mph 19.0 mph 43% 0.00 in
17:44 76.2 °F 52.7 °F 29.80 in SSW 16.0 mph 17.0 mph 44% 0.00 in
17:49 75.7 °F 53.5 °F 29.80 in SSW 9.0 mph 13.0 mph 46% 0.00 in
17:54 75.5 °F 53.3 °F 29.81 in SW 7.0 mph 13.0 mph 46% 0.00 in
17:59 75.0 °F 52.8 °F 29.80 in SW 13.0 mph 13.0 mph 46% 0.00 in
18:04 74.9 °F 53.9 °F 29.81 in SSW 6.0 mph 16.0 mph 48% 0.00 in
18:09 75.1 °F 52.9 °F 29.81 in SW 13.0 mph 16.0 mph 46% 0.00 in
18:14 74.5 °F 53.0 °F 29.81 in SW 9.0 mph 14.0 mph 47% 0.00 in
18:19 73.9 °F 54.1 °F 29.81 in WSW 7.0 mph 11.0 mph 50% 0.00 in
18:24 73.7 °F 53.4 °F 29.81 in SW 6.0 mph 16.0 mph 49% 0.00 in
18:29 74.2 °F 53.3 °F 29.81 in SW 12.0 mph 12.0 mph 48% 0.00 in
18:34 74.5 °F 54.1 °F 29.81 in SW 9.0 mph 11.0 mph 49% 0.00 in
18:39 74.4 °F 53.5 °F 29.81 in SW 10.0 mph 13.0 mph 48% 0.00 in
18:44 74.0 °F 54.2 °F 29.81 in SW 7.0 mph 10.0 mph 50% 0.00 in
18:49 73.8 °F 54.0 °F 29.81 in South 7.0 mph 12.0 mph 50% 0.00 in
18:55 73.7 °F 52.8 °F 29.81 in WSW 10.0 mph 14.0 mph 48% 0.00 in
19:00 73.7 °F 53.9 °F 29.81 in South 5.0 mph 11.0 mph 50% 0.00 in
19:05 73.9 °F 54.1 °F 29.81 in SSW 6.0 mph 10.0 mph 50% 0.00 in
19:10 73.8 °F 54.0 °F 29.81 in SW 6.0 mph 12.0 mph 50% 0.00 in
19:15 73.3 °F 54.1 °F 29.81 in SW 4.0 mph 10.0 mph 51% 0.00 in
19:20 73.1 °F 53.9 °F 29.81 in SE 9.0 mph 16.0 mph 51% 0.00 in
19:25 72.9 °F 53.2 °F 29.81 in SSW 12.0 mph 15.0 mph 50% 0.00 in
19:30 72.8 °F 53.1 °F 29.81 in South 5.0 mph 12.0 mph 50% 0.00 in
19:35 73.2 °F 53.5 °F 29.81 in SSW 10.0 mph 16.0 mph 50% 0.00 in
19:40 73.2 °F 53.5 °F 29.82 in SSW 7.0 mph 16.0 mph 50% 0.00 in
19:41 73.2 °F 53.5 °F 29.82 in South 6.0 mph 16.0 mph 50% 0.00 in
19:46 73.0 °F 53.3 °F 29.81 in SW 6.0 mph 13.0 mph 50% 0.00 in
19:51 72.5 °F 53.9 °F 29.81 in WSW 6.0 mph 11.0 mph 52% 0.00 in
19:56 72.2 °F 53.6 °F 29.81 in WSW 9.0 mph 13.0 mph 52% 0.00 in
20:01 71.8 °F 53.8 °F 29.81 in WSW 10.0 mph 12.0 mph 53% 0.00 in
20:06 71.4 °F 53.9 °F 29.81 in SW 8.0 mph 12.0 mph 54% 0.00 in
20:11 71.1 °F 53.6 °F 29.82 in WSW 11.0 mph 12.0 mph 54% 0.00 in
20:16 70.8 °F 53.3 °F 29.82 in WSW 6.0 mph 14.0 mph 54% 0.00 in
20:21 70.5 °F 52.0 °F 29.82 in West 13.0 mph 15.0 mph 52% 0.00 in
20:26 70.3 °F 50.8 °F 29.82 in WSW 8.0 mph 15.0 mph 50% 0.00 in
20:31 69.8 °F 50.9 °F 29.82 in WSW 6.0 mph 9.0 mph 51% 0.00 in
20:36 69.4 °F 50.5 °F 29.82 in SW 10.0 mph 13.0 mph 51% 0.00 in
20:41 69.3 °F 48.8 °F 29.82 in SW 12.0 mph 12.0 mph 48% 0.00 in
20:46 69.0 °F 48.5 °F 29.82 in WSW 6.0 mph 10.0 mph 48% 0.00 in
20:51 68.6 °F 48.2 °F 29.82 in SW 5.0 mph 12.0 mph 48% 0.00 in
20:56 68.2 °F 48.3 °F 29.83 in West 5.0 mph 8.0 mph 49% 0.00 in
21:01 67.6 °F 48.3 °F 29.83 in West 3.0 mph 5.0 mph 50% 0.00 in
21:06 67.2 °F 48.5 °F 29.83 in West 5.0 mph 6.0 mph 51% 0.00 in
21:11 66.9 °F 47.7 °F 29.83 in SW 6.0 mph 8.0 mph 50% 0.00 in
21:16 66.7 °F 48.0 °F 29.84 in West 5.0 mph 10.0 mph 51% 0.00 in
21:21 66.5 °F 47.8 °F 29.84 in West 5.0 mph 8.0 mph 51% 0.00 in
21:26 66.4 °F 47.2 °F 29.84 in WSW 8.0 mph 10.0 mph 50% 0.00 in
21:31 66.4 °F 47.7 °F 29.84 in West 5.0 mph 12.0 mph 51% 0.00 in
21:36 66.1 °F 47.5 °F 29.84 in West 7.0 mph 8.0 mph 51% 0.00 in
21:42 65.9 °F 47.3 °F 29.84 in WSW 5.0 mph 8.0 mph 51% 0.00 in
21:47 65.6 °F 47.5 °F 29.85 in West 5.0 mph 10.0 mph 52% 0.00 in
21:48 65.6 °F 47.5 °F 29.85 in West 12.0 mph 12.0 mph 52% 0.00 in
21:53 65.7 °F 47.6 °F 29.85 in WNW 9.0 mph 12.0 mph 52% 0.00 in
21:58 65.4 °F 47.3 °F 29.86 in West 8.0 mph 12.0 mph 52% 0.00 in
22:03 65.1 °F 47.1 °F 29.86 in WNW 3.0 mph 13.0 mph 52% 0.00 in
22:08 64.7 °F 47.2 °F 29.86 in West 6.0 mph 14.0 mph 53% 0.00 in
22:13 64.1 °F 47.1 °F 29.86 in WSW 8.0 mph 10.0 mph 54% 0.00 in
22:18 63.9 °F 47.0 °F 29.86 in WSW 5.0 mph 12.0 mph 54% 0.00 in
22:23 63.5 °F 47.1 °F 29.86 in West 4.0 mph 13.0 mph 55% 0.00 in
22:28 63.1 °F 47.2 °F 29.86 in WSW 8.0 mph 9.0 mph 56% 0.00 in
22:33 62.7 °F 46.8 °F 29.86 in West 4.0 mph 7.0 mph 56% 0.00 in
22:38 62.5 °F 47.1 °F 29.87 in West 3.0 mph 9.0 mph 57% 0.00 in
22:43 62.3 °F 46.9 °F 29.87 in West 2.0 mph 9.0 mph 57% 0.00 in
22:48 61.9 °F 46.5 °F 29.87 in West 5.0 mph 8.0 mph 57% 0.00 in
22:53 61.6 °F 46.7 °F 29.87 in West 3.0 mph 8.0 mph 58% 0.00 in
22:58 61.4 °F 46.5 °F 29.87 in WSW 5.0 mph 8.0 mph 58% 0.00 in
23:03 61.3 °F 46.9 °F 29.87 in West 6.0 mph 8.0 mph 59% 0.00 in
23:08 61.0 °F 46.6 °F 29.87 in West 5.0 mph 5.0 mph 59% 0.00 in
23:13 60.8 °F 46.4 °F 29.87 in West 3.0 mph 5.0 mph 59% 0.00 in
23:18 60.6 °F 46.7 °F 29.87 in WSW 9.0 mph 9.0 mph 60% 0.00 in
23:23 60.5 °F 46.6 °F 29.87 in West 3.0 mph 6.0 mph 60% 0.00 in
23:28 60.1 °F 46.6 °F 29.87 in SW 5.0 mph 8.0 mph 61% 0.00 in
23:33 60.1 °F 46.6 °F 29.86 in SW 3.0 mph 6.0 mph 61% 0.00 in
23:38 59.8 °F 46.8 °F 29.87 in WSW 2.0 mph 4.0 mph 62% 0.00 in
23:43 59.6 °F 46.6 °F 29.86 in West 1.0 mph 5.0 mph 62% 0.00 in
23:48 59.5 °F 46.9 °F 29.86 in West 8.0 mph 8.0 mph 63% 0.00 in
23:53 59.4 °F 46.4 °F 29.86 in West 3.0 mph 6.0 mph 62% 0.00 in
23:58 59.2 °F 46.6 °F 29.86 in West 2.0 mph 6.0 mph 63% 0.00 in
Compliments of Weather Underground